createdAt,value
2018-09-22T00:00:22.216Z,95.56
2018-09-22T00:01:22.209Z,95.46
2018-09-22T00:02:22.210Z,95.46
2018-09-22T00:03:22.195Z,95.56
2018-09-22T00:04:22.182Z,95.51
2018-09-22T00:05:22.178Z,95.41
2018-09-22T00:06:22.173Z,95.75
2018-09-22T00:07:22.156Z,95.7
2018-09-22T00:08:22.146Z,96.03
2018-09-22T00:09:22.141Z,95.65
2018-09-22T00:10:22.132Z,95.75
2018-09-22T00:11:22.120Z,95.75
2018-09-22T00:12:22.111Z,96.03
2018-09-22T00:13:22.102Z,95.6
2018-09-22T00:14:22.100Z,95.75
2018-09-22T00:15:21.831Z,95.36
2018-09-22T00:16:22.077Z,95.65
2018-09-22T00:17:21.814Z,95.36
2018-09-22T00:18:22.060Z,95.46
2018-09-22T00:19:21.796Z,95.6
2018-09-22T00:20:22.043Z,95.36
2018-09-22T00:21:22.037Z,95.36
2018-09-22T00:22:22.029Z,95.56
2018-09-22T00:23:22.069Z,95.36
2018-09-22T00:24:22.007Z,95.65
2018-09-22T00:25:21.999Z,95.84
2018-09-22T00:26:21.988Z,95.65
2018-09-22T00:27:21.812Z,95.46
2018-09-22T00:28:22.272Z,95.84
2018-09-22T00:29:21.964Z,95.56
2018-09-22T00:30:21.699Z,95.41
2018-09-22T00:31:21.690Z,95.32
2018-09-22T00:32:21.936Z,95.41
2018-09-22T00:33:21.929Z,95.41
2018-09-22T00:34:21.918Z,95.22
2018-09-22T00:35:21.914Z,95.32
2018-09-22T00:36:21.903Z,95.41
2018-09-22T00:37:21.893Z,95.56
2018-09-22T00:38:21.885Z,95.56
2018-09-22T00:39:21.876Z,95.75
2018-09-22T00:40:21.869Z,95.46
2018-09-22T00:41:21.858Z,95.65
2018-09-22T00:42:21.849Z,95.46
2018-09-22T00:43:21.841Z,95.65
2018-09-22T00:44:21.832Z,95.36
2018-09-22T00:45:21.822Z,95.17
2018-09-22T00:46:21.811Z,95.17
2018-09-22T00:47:21.809Z,95.27
2018-09-22T00:48:21.797Z,95.08
2018-09-22T00:49:21.790Z,94.98
2018-09-22T00:50:21.787Z,95.27
2018-09-22T00:51:21.770Z,95.08
2018-09-22T00:52:21.766Z,94.32
2018-09-22T00:53:21.750Z,94.46
2018-09-22T00:54:21.744Z,94.46
2018-09-22T00:55:21.739Z,94.74
2018-09-22T00:56:21.730Z,94.74
2018-09-22T00:57:21.716Z,93.7
2018-09-22T00:58:21.708Z,94.08
2018-09-22T00:59:21.701Z,94.17
2018-09-22T01:00:21.695Z,94.17
2018-09-22T01:01:21.428Z,94.08
2018-09-22T01:02:21.675Z,93.88
2018-09-22T01:03:21.665Z,93.79
2018-09-22T01:04:21.660Z,94.08
2018-09-22T01:05:21.649Z,93.88
2018-09-22T01:06:21.640Z,93.98
2018-09-22T01:07:21.634Z,93.79
2018-09-22T01:08:21.623Z,94.08
2018-09-22T01:09:21.614Z,93.79
2018-09-22T01:10:21.615Z,94.08
2018-09-22T01:11:21.603Z,93.79
2018-09-22T01:12:21.593Z,93.88
2018-09-22T01:13:21.581Z,93.79
2018-09-22T01:14:21.578Z,93.98
2018-09-22T01:15:21.588Z,94.08
2018-09-22T01:16:21.556Z,93.98
2018-09-22T01:17:21.549Z,94.22
2018-09-22T01:18:21.545Z,93.93
2018-09-22T01:19:21.537Z,94.22
2018-09-22T01:20:21.524Z,93.93
2018-09-22T01:21:21.517Z,93.98
2018-09-22T01:22:21.505Z,94.27
2018-09-22T01:23:21.501Z,94.03
2018-09-22T01:24:21.490Z,94.08
2018-09-22T01:25:21.481Z,94.32
2018-09-22T01:26:21.473Z,94.12
2018-09-22T01:27:21.464Z,94.32
2018-09-22T01:28:21.460Z,94.03
2018-09-22T01:29:21.446Z,94.03
2018-09-22T01:30:21.439Z,93.84
2018-09-22T01:31:21.436Z,94.03
2018-09-22T01:32:21.427Z,93.93
2018-09-22T01:33:21.414Z,93.93
2018-09-22T01:34:21.416Z,94.03
2018-09-22T01:35:21.403Z,94.03
2018-09-22T01:36:21.387Z,94.12
2018-09-22T01:37:21.384Z,94.32
2018-09-22T01:38:21.377Z,94.32
2018-09-22T01:39:21.366Z,94.12
2018-09-22T01:40:21.358Z,94.07
2018-09-22T01:41:21.350Z,93.51
2018-09-22T01:42:21.349Z,93.79
2018-09-22T01:43:21.334Z,93.79
2018-09-22T01:44:21.328Z,93.51
2018-09-22T01:45:21.318Z,93.7
2018-09-22T01:46:21.309Z,94.07
2018-09-22T01:47:21.304Z,93.51
2018-09-22T01:48:21.296Z,93.79
2018-09-22T01:49:21.032Z,93.51
2018-09-22T01:50:21.277Z,93.98
2018-09-22T01:51:21.271Z,93.98
2018-09-22T01:52:21.331Z,93.88
2018-09-22T01:53:21.001Z,94.07
2018-09-22T01:54:21.247Z,94.27
2018-09-22T01:55:21.240Z,94.27
2018-09-22T01:56:21.236Z,94.27
2018-09-22T01:57:21.223Z,94.46
2018-09-22T01:58:21.216Z,94.46
2018-09-22T01:59:20.953Z,94.46
2018-09-22T02:00:21.201Z,94.36
2018-09-22T02:01:21.191Z,94.36
2018-09-22T02:02:21.185Z,94.56
2018-09-22T02:03:20.930Z,94.12
2018-09-22T02:04:21.168Z,93.98
2018-09-22T02:05:21.163Z,93.84
2018-09-22T02:06:21.152Z,93.74
2018-09-22T02:07:21.145Z,94.41
2018-09-22T02:08:21.138Z,94.12
2018-09-22T02:09:21.133Z,94.51
2018-09-22T02:10:21.120Z,94.7
2018-09-22T02:11:21.115Z,94.7
2018-09-22T02:12:21.107Z,94.51
2018-09-22T02:13:20.844Z,94.51
2018-09-22T02:14:21.096Z,94.51
2018-09-22T02:15:20.827Z,94.51
2018-09-22T02:16:21.075Z,94.41
2018-09-22T02:17:21.069Z,94.41
2018-09-22T02:18:21.057Z,94.6
2018-09-22T02:19:21.050Z,94.74
2018-09-22T02:20:20.791Z,95.03
2018-09-22T02:21:21.035Z,94.93
2018-09-22T02:22:21.026Z,94.74
2018-09-22T02:23:21.021Z,94.84
2018-09-22T02:24:21.008Z,94.74
2018-09-22T02:25:21.002Z,94.84
2018-09-22T02:26:20.992Z,94.84
2018-09-22T02:27:20.988Z,94.84
2018-09-22T02:28:20.975Z,94.65
2018-09-22T02:29:20.969Z,94.84
2018-09-22T02:30:20.965Z,94.65
2018-09-22T02:31:20.696Z,94.84
2018-09-22T02:32:20.982Z,94.93
2018-09-22T02:33:21.039Z,94.74
2018-09-22T02:34:20.928Z,95.22
2018-09-22T02:35:20.921Z,94.93
2018-09-22T02:36:20.911Z,95.22
2018-09-22T02:37:20.899Z,95.03
2018-09-22T02:38:20.893Z,94.84
2018-09-22T02:39:20.888Z,95.03
2018-09-22T02:40:20.620Z,95.22
2018-09-22T02:41:20.611Z,94.89
2018-09-22T02:42:20.877Z,95.08
2018-09-22T02:43:20.595Z,95.08
2018-09-22T02:44:20.844Z,94.89
2018-09-22T02:45:20.577Z,95.17
2018-09-22T02:46:20.825Z,94.98
2018-09-22T02:47:20.817Z,95.17
2018-09-22T02:48:20.817Z,94.89
2018-09-22T02:49:20.800Z,94.79
2018-09-22T02:50:20.792Z,94.98
2018-09-22T02:51:20.780Z,94.98
2018-09-22T02:52:20.769Z,94.98
2018-09-22T02:53:20.762Z,95.17
2018-09-22T02:54:20.755Z,94.79
2018-09-22T02:55:20.745Z,94.98
2018-09-22T02:56:20.742Z,94.79
2018-09-22T02:57:20.736Z,95.08
2018-09-22T02:58:20.720Z,94.79
2018-09-22T02:59:20.717Z,94.98
2018-09-22T03:00:20.703Z,94.7
2018-09-22T03:01:20.697Z,95.17
2018-09-22T03:02:20.690Z,94.98
2018-09-22T03:03:20.677Z,95.17
2018-09-22T03:04:20.672Z,94.89
2018-09-22T03:05:20.703Z,95.36
2018-09-22T03:06:20.661Z,95.27
2018-09-22T03:07:20.640Z,94.89
2018-09-22T03:08:20.376Z,95.27
2018-09-22T03:09:20.629Z,94.98
2018-09-22T03:10:20.615Z,94.89
2018-09-22T03:11:20.607Z,94.98
2018-09-22T03:12:20.615Z,95.27
2018-09-22T03:13:20.590Z,94.98
2018-09-22T03:14:20.326Z,95.08
2018-09-22T03:15:20.696Z,95.17
2018-09-22T03:16:20.305Z,95.08
2018-09-22T03:17:20.560Z,95.08
2018-09-22T03:18:20.546Z,94.93
2018-09-22T03:19:20.536Z,95.03
2018-09-22T03:20:20.533Z,95.08
2018-09-22T03:21:20.534Z,95.12
2018-09-22T03:22:20.510Z,95.03
2018-09-22T03:23:20.500Z,94.79
2018-09-22T03:24:20.494Z,95.17
2018-09-22T03:25:20.481Z,94.93
2018-09-22T03:26:20.471Z,95.12
2018-09-22T03:27:20.465Z,95.03
2018-09-22T03:28:20.454Z,94.93
2018-09-22T03:29:20.456Z,94.84
2018-09-22T03:30:20.436Z,95.41
2018-09-22T03:31:20.431Z,94.84
2018-09-22T03:32:20.170Z,95.12
2018-09-22T03:33:20.409Z,94.84
2018-09-22T03:34:20.145Z,94.93
2018-09-22T03:35:20.395Z,95.12
2018-09-22T03:36:20.381Z,95.03
2018-09-22T03:37:20.391Z,94.84
2018-09-22T03:38:20.369Z,95.03
2018-09-22T03:39:20.354Z,95.12
2018-09-22T03:40:20.091Z,95.22
2018-09-22T03:41:20.337Z,95.03
2018-09-22T03:42:20.338Z,95.03
2018-09-22T03:43:20.347Z,95.12
2018-09-22T03:44:20.310Z,95.32
2018-09-22T03:45:20.308Z,95.22
2018-09-22T03:46:20.292Z,94.93
2018-09-22T03:47:20.319Z,95.32
2018-09-22T03:48:20.277Z,95.32
2018-09-22T03:49:20.272Z,95.22
2018-09-22T03:50:20.258Z,95.03
2018-09-22T03:51:20.264Z,95.22
2018-09-22T03:52:20.245Z,94.84
2018-09-22T03:53:20.229Z,95.22
2018-09-22T03:54:20.223Z,95.22
2018-09-22T03:55:20.211Z,94.84
2018-09-22T03:56:20.208Z,95.03
2018-09-22T03:57:20.196Z,95.12
2018-09-22T03:58:19.936Z,95.03
2018-09-22T03:59:20.175Z,95.22
2018-09-22T04:00:20.168Z,95.03
2018-09-22T04:01:20.161Z,95.03
2018-09-22T04:02:20.149Z,95.22
2018-09-22T04:03:20.138Z,95.03
2018-09-22T04:04:20.131Z,95.41
2018-09-22T04:05:20.125Z,95.12
2018-09-22T04:06:20.111Z,95.22
2018-09-22T04:07:20.106Z,95.03
2018-09-22T04:08:20.094Z,94.65
2018-09-22T04:09:20.088Z,95.12
2018-09-22T04:10:19.820Z,94.93
2018-09-22T04:11:20.074Z,94.65
2018-09-22T04:12:20.059Z,94.74
2018-09-22T04:13:20.065Z,94.65
2018-09-22T04:14:20.054Z,95.12
2018-09-22T04:15:20.041Z,95.03
2018-09-22T04:16:19.765Z,95.03
2018-09-22T04:17:20.013Z,94.74
2018-09-22T04:18:20.012Z,95.03
2018-09-22T04:19:19.995Z,95.03
2018-09-22T04:20:19.983Z,94.56
2018-09-22T04:21:19.987Z,94.74
2018-09-22T04:22:19.975Z,95.12
2018-09-22T04:23:19.959Z,94.65
2018-09-22T04:24:19.951Z,94.65
2018-09-22T04:25:19.941Z,94.84
2018-09-22T04:26:19.932Z,94.84
2018-09-22T04:27:19.665Z,94.84
2018-09-22T04:28:19.913Z,94.65
2018-09-22T04:29:19.906Z,94.84
2018-09-22T04:30:19.895Z,94.74
2018-09-22T04:31:19.885Z,94.93
2018-09-22T04:32:19.875Z,95.03
2018-09-22T04:33:19.956Z,95.22
2018-09-22T04:34:19.857Z,94.93
2018-09-22T04:35:19.848Z,94.84
2018-09-22T04:36:19.585Z,94.84
2018-09-22T04:37:19.831Z,94.84
2018-09-22T04:38:19.821Z,94.93
2018-09-22T04:39:19.819Z,94.93
2018-09-22T04:40:19.806Z,94.74
2018-09-22T04:41:19.792Z,94.74
2018-09-22T04:42:19.783Z,94.84
2018-09-22T04:43:19.779Z,94.65
2018-09-22T04:44:19.766Z,95.12
2018-09-22T04:45:19.756Z,95.12
2018-09-22T04:46:19.492Z,94.65
2018-09-22T04:47:19.738Z,94.74
2018-09-22T04:48:19.730Z,94.84
2018-09-22T04:49:19.720Z,94.74
2018-09-22T04:50:19.710Z,95.03
2018-09-22T04:51:19.708Z,95.32
2018-09-22T04:52:19.695Z,94.56
2018-09-22T04:53:19.684Z,94.79
2018-09-22T04:54:19.677Z,94.89
2018-09-22T04:55:19.666Z,94.6
2018-09-22T04:56:19.661Z,94.89
2018-09-22T04:57:19.647Z,94.22
2018-09-22T04:58:19.642Z,94.6
2018-09-22T04:59:19.674Z,94.41
2018-09-22T05:00:19.625Z,94.03
2018-09-22T05:01:19.615Z,94.08
2018-09-22T05:02:19.600Z,94.56
2018-09-22T05:03:19.341Z,94.08
2018-09-22T05:04:19.585Z,93.88
2018-09-22T05:05:19.575Z,93.88
2018-09-22T05:06:19.567Z,93.98
2018-09-22T05:07:19.564Z,93.6
2018-09-22T05:08:19.293Z,93.7
2018-09-22T05:09:19.542Z,93.7
2018-09-22T05:10:19.535Z,93.27
2018-09-22T05:11:19.525Z,93.84
2018-09-22T05:12:19.518Z,93.36
2018-09-22T05:13:19.509Z,93.46
2018-09-22T05:14:19.504Z,93.27
2018-09-22T05:15:19.489Z,93.36
2018-09-22T05:16:19.483Z,93.74
2018-09-22T05:17:19.218Z,93.84
2018-09-22T05:18:19.463Z,93.74
2018-09-22T05:19:19.456Z,93.46
2018-09-22T05:20:19.450Z,93.93
2018-09-22T05:21:19.439Z,93.84
2018-09-22T05:22:19.432Z,94.32
2018-09-22T05:23:19.424Z,94.32
2018-09-22T05:24:19.416Z,93.93
2018-09-22T05:25:19.413Z,93.93
2018-09-22T05:26:19.399Z,93.93
2018-09-22T05:27:19.391Z,94.03
2018-09-22T05:28:19.385Z,94.22
2018-09-22T05:29:19.482Z,94.6
2018-09-22T05:30:19.366Z,94.79
2018-09-22T05:31:19.366Z,94.74
2018-09-22T05:32:19.355Z,94.98
2018-09-22T05:33:19.131Z,94.89
2018-09-22T05:34:19.334Z,94.65
2018-09-22T05:35:19.333Z,94.84
2018-09-22T05:36:19.317Z,94.84
2018-09-22T05:37:19.311Z,95.12
2018-09-22T05:38:19.302Z,94.84
2018-09-22T05:39:19.295Z,94.74
2018-09-22T05:40:19.284Z,94.65
2018-09-22T05:41:19.283Z,94.84
2018-09-22T05:42:19.271Z,94.84
2018-09-22T05:43:19.266Z,94.84
2018-09-22T05:44:19.257Z,94.93
2018-09-22T05:45:19.246Z,94.84
2018-09-22T05:46:19.239Z,94.84
2018-09-22T05:47:19.231Z,94.93
2018-09-22T05:48:18.969Z,94.93
2018-09-22T05:49:19.216Z,95.03
2018-09-22T05:50:19.206Z,94.93
2018-09-22T05:51:18.942Z,95.03
2018-09-22T05:52:19.189Z,94.74
2018-09-22T05:53:19.185Z,94.36
2018-09-22T05:54:19.174Z,94.65
2018-09-22T05:55:19.167Z,94.56
2018-09-22T05:56:19.160Z,93.7
2018-09-22T05:57:19.153Z,94.65
2018-09-22T05:58:19.279Z,93.88
2018-09-22T05:59:19.138Z,94.17
2018-09-22T06:00:19.129Z,94.31
2018-09-22T06:01:19.121Z,94.07
2018-09-22T06:02:19.112Z,94.36
2018-09-22T06:03:19.107Z,94.03
2018-09-22T06:04:19.099Z,94.51
2018-09-22T06:05:19.089Z,94.22
2018-09-22T06:06:18.828Z,94.12
2018-09-22T06:07:19.080Z,94.22
2018-09-22T06:08:19.070Z,93.74
2018-09-22T06:09:19.060Z,93.55
2018-09-22T06:10:19.057Z,93.65
2018-09-22T06:11:18.790Z,93.74
2018-09-22T06:12:19.041Z,93.65
2018-09-22T06:13:19.036Z,93.93
2018-09-22T06:14:19.023Z,93.36
2018-09-22T06:15:19.020Z,93.84
2018-09-22T06:16:19.011Z,93.5
2018-09-22T06:17:19.003Z,93.65
2018-09-22T06:18:18.743Z,93.6
2018-09-22T06:19:18.993Z,93.7
2018-09-22T06:20:19.017Z,93.88
2018-09-22T06:21:18.975Z,93.5
2018-09-22T06:22:18.711Z,93.31
2018-09-22T06:23:18.740Z,93.31
2018-09-22T06:24:18.933Z,93.12
2018-09-22T06:25:18.927Z,92.93
2018-09-22T06:26:18.917Z,92.83
2018-09-22T06:27:18.914Z,92.64
2018-09-22T06:28:18.902Z,92.93
2018-09-22T06:29:18.895Z,92.74
2018-09-22T06:30:18.636Z,92.55
2018-09-22T06:31:18.880Z,92.26
2018-09-22T06:32:18.875Z,92.88
2018-09-22T06:33:18.867Z,92.36
2018-09-22T06:34:18.860Z,92.4
2018-09-22T06:35:18.852Z,92.4
2018-09-22T06:36:18.849Z,92.88
2018-09-22T06:37:18.891Z,91.83
2018-09-22T06:38:18.832Z,92.11
2018-09-22T06:39:18.827Z,92.11
2018-09-22T06:40:18.819Z,92.3
2018-09-22T06:41:18.813Z,91.25
2018-09-22T06:42:18.805Z,91.49
2018-09-22T06:43:18.797Z,91.35
2018-09-22T06:44:18.790Z,91.3
2018-09-22T06:45:18.785Z,91.2
2018-09-22T06:46:18.975Z,91.3
2018-09-22T06:47:18.772Z,90.73
2018-09-22T06:48:18.762Z,91.11
2018-09-22T06:49:18.760Z,90.34
2018-09-22T06:50:18.497Z,90.63
2018-09-22T06:51:18.741Z,89.77
2018-09-22T06:52:18.736Z,90.06
2018-09-22T06:53:18.730Z,89.96
2018-09-22T06:54:18.722Z,89.96
2018-09-22T06:55:18.722Z,89.24
2018-09-22T06:56:18.712Z,89.05
2018-09-22T06:57:18.705Z,89.15
2018-09-22T06:58:18.697Z,89.15
2018-09-22T06:59:18.442Z,88.76
2018-09-22T07:00:18.692Z,88.33
2018-09-22T07:01:18.683Z,87.99
2018-09-22T07:02:18.679Z,87.61
2018-09-22T07:03:18.670Z,87.17
2018-09-22T07:04:18.663Z,85.93
2018-09-22T07:05:18.661Z,85.35
2018-09-22T07:06:18.811Z,85.45
2018-09-22T07:07:18.654Z,84.63
2018-09-22T07:08:18.646Z,85.21
2018-09-22T07:09:18.392Z,84.72
2018-09-22T07:10:18.640Z,84.82
2018-09-22T07:11:18.638Z,82.75
2018-09-22T07:12:18.631Z,82.18
2018-09-22T07:13:18.626Z,82.65
2018-09-22T07:14:18.372Z,81.74
2018-09-22T07:15:18.637Z,81.07
2018-09-22T07:16:18.623Z,80.15
2018-09-22T07:17:18.622Z,79.03
2018-09-22T07:18:18.616Z,78.27
2018-09-22T07:19:18.613Z,78.17
2018-09-22T07:20:18.614Z,77.73
2018-09-22T07:21:18.609Z,76.61
2018-09-22T07:22:18.628Z,75.46
2018-09-22T07:23:18.606Z,74.54
2018-09-22T07:24:18.610Z,73.19
2018-09-22T07:25:18.664Z,72.45
2018-09-22T07:26:18.607Z,70.76
2018-09-22T07:27:18.607Z,70.47
2018-09-22T07:28:18.606Z,69.64
2018-09-22T07:29:18.606Z,66.85
2018-09-22T07:30:18.613Z,65.59
2018-09-22T07:31:18.609Z,64.82
2018-09-22T07:32:18.621Z,64.15
2018-09-22T07:33:18.616Z,63.21
2018-09-22T07:34:18.362Z,63.12
2018-09-22T07:35:18.615Z,63.31
2018-09-22T07:36:18.621Z,62.76
2018-09-22T07:37:18.618Z,62.38
2018-09-22T07:38:18.619Z,61.25
2018-09-22T07:39:18.757Z,61.16
2018-09-22T07:40:18.624Z,60.68
2018-09-22T07:41:18.628Z,58.65
2018-09-22T07:42:18.631Z,58.94
2018-09-22T07:43:18.631Z,57.68
2018-09-22T07:44:18.629Z,58.33
2018-09-22T07:45:18.631Z,58.91
2018-09-22T07:46:18.632Z,59.2
2018-09-22T07:47:18.634Z,59
2018-09-22T07:48:18.635Z,58.91
2018-09-22T07:49:18.635Z,58.4
2018-09-22T07:50:18.636Z,58.11
2018-09-22T07:51:18.635Z,58.49
2018-09-22T07:52:18.636Z,59.36
2018-09-22T07:53:18.638Z,60.1
2018-09-22T07:54:18.637Z,60.58
2018-09-22T07:55:18.636Z,60.3
2018-09-22T07:56:18.639Z,59.91
2018-09-22T07:57:18.797Z,60.46
2018-09-22T07:58:18.641Z,61.04
2018-09-22T07:59:18.397Z,61.1
2018-09-22T08:00:18.727Z,61.87
2018-09-22T08:01:18.640Z,62.64
2018-09-22T08:02:18.641Z,62.83
2018-09-22T08:03:18.641Z,62.9
2018-09-22T08:04:18.636Z,63.18
2018-09-22T08:05:18.635Z,63.76
2018-09-22T08:06:18.637Z,63.76
2018-09-22T08:07:18.635Z,63.86
2018-09-22T08:08:18.630Z,63.67
2018-09-22T08:09:18.629Z,63.76
2018-09-22T08:10:18.633Z,63.28
2018-09-22T08:11:18.632Z,63.57
2018-09-22T08:12:18.628Z,63.76
2018-09-22T08:13:18.670Z,64.25
2018-09-22T08:14:18.653Z,64.34
2018-09-22T08:15:18.620Z,63.76
2018-09-22T08:16:18.621Z,63.67
2018-09-22T08:17:18.618Z,63.57
2018-09-22T08:18:18.613Z,62.99
2018-09-22T08:19:18.359Z,63.67
2018-09-22T08:20:18.359Z,63.57
2018-09-22T08:21:18.648Z,63.57
2018-09-22T08:22:18.605Z,63.67
2018-09-22T08:23:18.606Z,63.67
2018-09-22T08:24:18.348Z,63.67
2018-09-22T08:25:18.781Z,63.57
2018-09-22T08:26:18.593Z,63.67
2018-09-22T08:27:18.590Z,63.18
2018-09-22T08:28:18.588Z,63.22
2018-09-22T08:29:18.590Z,63.22
2018-09-22T08:30:18.584Z,62.9
2018-09-22T08:31:18.580Z,62.93
2018-09-22T08:32:18.328Z,62.93
2018-09-22T08:33:18.579Z,62.83
2018-09-22T08:34:18.323Z,63.12
2018-09-22T08:35:18.572Z,62.83
2018-09-22T08:36:18.836Z,63.7
2018-09-22T08:37:18.468Z,63.41
2018-09-22T08:38:18.565Z,62.99
2018-09-22T08:39:18.563Z,63.09
2018-09-22T08:40:18.563Z,63.86
2018-09-22T08:41:18.558Z,63.57
2018-09-22T08:42:18.302Z,63.38
2018-09-22T08:43:18.553Z,63.86
2018-09-22T08:44:18.550Z,64.25
2018-09-22T08:45:18.548Z,63.76
2018-09-22T08:46:18.292Z,64.25
2018-09-22T08:47:18.593Z,64.25
2018-09-22T08:48:18.539Z,64.34
2018-09-22T08:49:18.536Z,63.57
2018-09-22T08:50:18.535Z,63.48
2018-09-22T08:51:18.280Z,63.48
2018-09-22T08:52:18.530Z,62.64
2018-09-22T08:53:18.526Z,61.49
2018-09-22T08:54:18.527Z,62.06
2018-09-22T08:55:18.268Z,62.06
2018-09-22T08:56:18.531Z,61.97
2018-09-22T08:57:18.520Z,62.06
2018-09-22T08:58:18.512Z,61.39
2018-09-22T08:59:18.512Z,60.33
2018-09-22T09:00:18.512Z,60.42
2018-09-22T09:01:18.509Z,60.42
2018-09-22T09:02:18.508Z,60.14
2018-09-22T09:03:18.502Z,60.52
2018-09-22T09:04:18.501Z,61.39
2018-09-22T09:05:18.497Z,61.49
2018-09-22T09:06:18.495Z,61.19
2018-09-22T09:07:18.495Z,60.33
2018-09-22T09:08:18.496Z,60.04
2018-09-22T09:09:18.488Z,60.42
2018-09-22T09:10:18.233Z,60.42
2018-09-22T09:11:18.295Z,60.04
2018-09-22T09:12:18.228Z,60.14
2018-09-22T09:13:18.599Z,59.94
2018-09-22T09:14:18.534Z,60.14
2018-09-22T09:15:18.473Z,59.37
2018-09-22T09:16:18.469Z,60.04
2018-09-22T09:17:18.468Z,60.49
2018-09-22T09:18:18.472Z,60.78
2018-09-22T09:19:18.462Z,61.39
2018-09-22T09:20:18.463Z,61.07
2018-09-22T09:21:18.457Z,61.16
2018-09-22T09:22:18.454Z,61.19
2018-09-22T09:23:18.452Z,60.14
2018-09-22T09:24:18.449Z,60.04
2018-09-22T09:25:18.196Z,59.66
2018-09-22T09:26:18.452Z,59.4
2018-09-22T09:27:18.444Z,58.72
2018-09-22T09:28:18.442Z,58.34
2018-09-22T09:29:18.436Z,58.72
2018-09-22T09:30:18.186Z,58.24
2018-09-22T09:31:18.432Z,58.34
2018-09-22T09:32:18.428Z,58.05
2018-09-22T09:33:18.429Z,58.15
2018-09-22T09:34:18.427Z,58.72
2018-09-22T09:35:18.429Z,58.15
2018-09-22T09:36:18.419Z,57.76
2018-09-22T09:37:18.417Z,57.28
2018-09-22T09:38:18.420Z,56.9
2018-09-22T09:39:18.414Z,56.32
2018-09-22T09:40:18.408Z,56.12
2018-09-22T09:41:18.406Z,56.99
2018-09-22T09:42:18.153Z,56.73
2018-09-22T09:43:18.469Z,56.35
2018-09-22T09:44:18.411Z,56.15
2018-09-22T09:45:18.399Z,56.15
2018-09-22T09:46:18.144Z,55.96
2018-09-22T09:47:18.405Z,56.25
2018-09-22T09:48:18.390Z,56.35
2018-09-22T09:49:18.392Z,56.35
2018-09-22T09:50:18.387Z,55.87
2018-09-22T09:51:18.133Z,54.9
2018-09-22T09:52:18.381Z,54.42
2018-09-22T09:53:18.383Z,54.03
2018-09-22T09:54:18.392Z,54.9
2018-09-22T09:55:18.377Z,55.29
2018-09-22T09:56:18.373Z,55.67
2018-09-22T09:57:18.119Z,55.77
2018-09-22T09:58:18.368Z,55.67
2018-09-22T09:59:18.369Z,55.93
2018-09-22T10:00:18.113Z,56.03
2018-09-22T10:01:18.362Z,56.12
2018-09-22T10:02:18.359Z,56.8
2018-09-22T10:03:18.366Z,56.9
2018-09-22T10:04:18.465Z,56.51
2018-09-22T10:05:18.355Z,56.67
2018-09-22T10:06:18.098Z,57.54
2018-09-22T10:07:18.348Z,57.45
2018-09-22T10:08:18.098Z,58.02
2018-09-22T10:09:18.345Z,57.83
2018-09-22T10:10:18.340Z,57.25
2018-09-22T10:11:18.339Z,56.8
2018-09-22T10:12:18.385Z,56.29
2018-09-22T10:13:18.082Z,55.93
2018-09-22T10:14:18.330Z,55.93
2018-09-22T10:15:18.327Z,56.03
2018-09-22T10:16:18.333Z,55.65
2018-09-22T10:17:18.323Z,55.65
2018-09-22T10:18:18.320Z,56.03
2018-09-22T10:19:18.318Z,56.03
2018-09-22T10:20:18.650Z,56.32
2018-09-22T10:21:18.314Z,56.51
2018-09-22T10:22:18.315Z,55.87
2018-09-22T10:23:18.310Z,55.93
2018-09-22T10:24:18.306Z,56.12
2018-09-22T10:25:18.053Z,56.12
2018-09-22T10:26:18.301Z,55.83
2018-09-22T10:27:18.302Z,56.32
2018-09-22T10:28:18.357Z,56.12
2018-09-22T10:29:18.296Z,56.41
2018-09-22T10:30:18.294Z,56.22
2018-09-22T10:31:18.290Z,56.22
2018-09-22T10:32:18.290Z,56.7
2018-09-22T10:33:18.285Z,56.03
2018-09-22T10:34:18.283Z,55.65
2018-09-22T10:35:18.290Z,56.12
2018-09-22T10:36:18.278Z,55.93
2018-09-22T10:37:18.025Z,55.55
2018-09-22T10:38:18.276Z,55.45
2018-09-22T10:39:18.273Z,55.83
2018-09-22T10:40:18.269Z,55.16
2018-09-22T10:41:18.267Z,54.68
2018-09-22T10:42:18.028Z,54.8
2018-09-22T10:43:18.262Z,54.61
2018-09-22T10:44:18.259Z,55
2018-09-22T10:45:18.007Z,55.48
2018-09-22T10:46:18.255Z,54.61
2018-09-22T10:47:18.001Z,54.8
2018-09-22T10:48:18.253Z,54.78
2018-09-22T10:49:18.253Z,54.1
2018-09-22T10:50:18.246Z,54.49
2018-09-22T10:51:18.245Z,54.49
2018-09-22T10:52:17.990Z,54.39
2018-09-22T10:53:18.240Z,54.68
2018-09-22T10:54:17.985Z,54.49
2018-09-22T10:55:18.233Z,54.58
2018-09-22T10:56:18.233Z,54.39
2018-09-22T10:57:17.978Z,54.2
2018-09-22T10:58:18.226Z,54.36
2018-09-22T10:59:18.225Z,54.56
2018-09-22T11:00:17.970Z,54.56
2018-09-22T11:01:17.967Z,55.13
2018-09-22T11:02:18.217Z,55.71
2018-09-22T11:03:18.300Z,55.71
2018-09-22T11:04:18.216Z,55.71
2018-09-22T11:05:18.215Z,55.62
2018-09-22T11:06:17.954Z,55.65
2018-09-22T11:07:18.208Z,55.35
2018-09-22T11:08:18.200Z,54.68
2018-09-22T11:09:17.947Z,54.39
2018-09-22T11:10:18.210Z,54.22
2018-09-22T11:11:18.193Z,54.52
2018-09-22T11:12:18.195Z,54.13
2018-09-22T11:13:18.189Z,54.61
2018-09-22T11:14:17.940Z,53.36
2018-09-22T11:15:18.184Z,53.65
2018-09-22T11:16:18.191Z,53.27
2018-09-22T11:17:18.180Z,53.55
2018-09-22T11:18:17.927Z,53.27
2018-09-22T11:19:18.176Z,53.45
2018-09-22T11:20:18.173Z,53.45
2018-09-22T11:21:18.170Z,53.72
2018-09-22T11:22:18.170Z,54.39
2018-09-22T11:23:17.913Z,53.91
2018-09-22T11:24:18.166Z,54.3
2018-09-22T11:25:17.912Z,53.91
2018-09-22T11:26:18.157Z,54.46
2018-09-22T11:27:17.903Z,54.56
2018-09-22T11:28:18.153Z,55.04
2018-09-22T11:29:18.150Z,54.75
2018-09-22T11:30:18.148Z,54.85
2018-09-22T11:31:17.895Z,55.62
2018-09-22T11:32:18.140Z,56.1
2018-09-22T11:33:18.143Z,56.1
2018-09-22T11:34:18.140Z,55.9
2018-09-22T11:35:18.134Z,55.62
2018-09-22T11:36:18.132Z,55.04
2018-09-22T11:37:18.130Z,55.04
2018-09-22T11:38:18.190Z,55.81
2018-09-22T11:39:18.126Z,55.62
2018-09-22T11:40:18.121Z,55.52
2018-09-22T11:41:18.118Z,55.11
2018-09-22T11:42:18.121Z,55.04
2018-09-22T11:43:18.112Z,54.53
2018-09-22T11:44:18.110Z,54.82
2018-09-22T11:45:17.855Z,55.01
2018-09-22T11:46:18.232Z,55.59
2018-09-22T11:47:18.102Z,55.49
2018-09-22T11:48:18.099Z,55.78
2018-09-22T11:49:18.097Z,55.59
2018-09-22T11:50:18.092Z,55.49
2018-09-22T11:51:18.090Z,55.49
2018-09-22T11:52:18.086Z,55.49
2018-09-22T11:53:18.387Z,55.98
2018-09-22T11:54:17.829Z,55.9
2018-09-22T11:55:18.079Z,55.62
2018-09-22T11:56:18.099Z,54.36
2018-09-22T11:57:18.071Z,54.39
2018-09-22T11:58:18.068Z,54.39
2018-09-22T11:59:18.068Z,53.14
2018-09-22T12:00:18.063Z,52.3
2018-09-22T12:01:17.809Z,52.4
2018-09-22T12:02:18.058Z,52.4
2018-09-22T12:03:18.060Z,52.11
2018-09-22T12:04:18.056Z,52.2
2018-09-22T12:05:18.051Z,52.3
2018-09-22T12:06:18.135Z,52.11
2018-09-22T12:07:18.045Z,52.4
2018-09-22T12:08:17.791Z,51.82
2018-09-22T12:09:18.042Z,51.05
2018-09-22T12:10:17.787Z,51.53
2018-09-22T12:11:17.783Z,51.34
2018-09-22T12:12:17.781Z,51.34
2018-09-22T12:13:18.033Z,51.17
2018-09-22T12:14:18.029Z,51.34
2018-09-22T12:15:18.026Z,51.14
2018-09-22T12:16:18.024Z,50.95
2018-09-22T12:17:18.023Z,51.24
2018-09-22T12:18:18.029Z,51.53
2018-09-22T12:19:18.016Z,51.43
2018-09-22T12:20:17.767Z,51.43
2018-09-22T12:21:18.070Z,51.14
2018-09-22T12:22:18.012Z,50.85
2018-09-22T12:23:18.012Z,50.76
2018-09-22T12:24:18.015Z,51.14
2018-09-22T12:25:18.002Z,51.34
2018-09-22T12:26:18.000Z,50.95
2018-09-22T12:27:17.747Z,50.66
2018-09-22T12:28:17.998Z,50.85
2018-09-22T12:29:17.993Z,51.24
2018-09-22T12:30:17.992Z,51.14
2018-09-22T12:31:17.991Z,51.43
2018-09-22T12:32:17.993Z,51.53
2018-09-22T12:33:17.985Z,51.34
2018-09-22T12:34:17.986Z,51.24
2018-09-22T12:35:17.984Z,50.95
2018-09-22T12:36:17.986Z,51.14
2018-09-22T12:37:17.978Z,51.41
2018-09-22T12:38:17.973Z,51.21
2018-09-22T12:39:17.970Z,51.21
2018-09-22T12:40:17.972Z,51.98
2018-09-22T12:41:17.964Z,51.89
2018-09-22T12:42:17.961Z,51.89
2018-09-22T12:43:17.967Z,51.98
2018-09-22T12:44:17.958Z,51.41
2018-09-22T12:45:17.991Z,50.54
2018-09-22T12:46:17.957Z,50.45
2018-09-22T12:47:17.958Z,50.73
2018-09-22T12:48:17.951Z,50.73
2018-09-22T12:49:17.944Z,50.63
2018-09-22T12:50:17.944Z,50.54
2018-09-22T12:51:17.938Z,50.71
2018-09-22T12:52:17.936Z,50.81
2018-09-22T12:53:17.933Z,50.51
2018-09-22T12:54:17.934Z,50.61